X  Schlie├čen METAR Luftfahrt Wetterdaten     EDDC Dresden Airport
Temperatur
4°C Temperatur
3°C Taupunkt
93% Feuchtigkeit



Wind
3 M/S
7 MPS
11 KM/S
6 KTS



140°
SO
Aktuelle Wetterlage

Klar Klar
Luftdruck 1017.95 (hPa) - 30.06 (inHg)
Sichtweite 6 (Meile) - 9.7 (Km)
Flughafen
Flughafen Code EDDC

Position : Dresden Airport
Entfernung: 122 (Km)

Metar:
EDDC 290920Z AUTO 14006KT CAVOK 04/03 Q1018 NOSIG

Zeit: 29-02-2024 10:20 CET